createdAt,value
2018-03-04T00:01:50.220Z,96134.30
2018-03-04T00:04:21.254Z,96131.98
2018-03-04T00:06:52.272Z,96130.34
2018-03-04T00:09:23.252Z,96129.94
2018-03-04T00:11:54.224Z,96139.75
2018-03-04T00:14:25.188Z,96130.52
2018-03-04T00:16:56.184Z,96134.00
2018-03-04T00:19:27.192Z,96135.27
2018-03-04T00:21:58.193Z,96146.48
2018-03-04T00:24:29.164Z,96141.65
2018-03-04T00:27:00.189Z,96141.87
2018-03-04T00:29:31.203Z,96155.03
2018-03-04T00:32:02.193Z,96144.18
2018-03-04T00:34:33.199Z,96155.94
2018-03-04T00:37:04.207Z,96158.63
2018-03-04T00:39:35.196Z,96157.23
2018-03-04T00:42:06.218Z,96157.00
2018-03-04T00:44:37.215Z,96158.20
2018-03-04T00:47:08.228Z,96157.37
2018-03-04T00:49:39.232Z,96158.80
2018-03-04T00:52:10.213Z,96164.00
2018-03-04T00:54:41.186Z,96165.06
2018-03-04T00:57:12.227Z,96161.24
2018-03-04T00:59:43.205Z,96158.77
2018-03-04T01:02:14.205Z,96155.48
2018-03-04T01:04:45.226Z,96158.83
2018-03-04T01:07:16.213Z,96164.03
2018-03-04T01:09:47.199Z,96169.44
2018-03-04T01:12:18.188Z,96167.80
2018-03-04T01:14:49.189Z,96164.76
2018-03-04T01:17:20.206Z,96160.59
2018-03-04T01:19:51.180Z,96170.31
2018-03-04T01:22:22.143Z,96167.48
2018-03-04T01:24:53.223Z,96164.53
2018-03-04T01:27:24.229Z,96170.42
2018-03-04T01:29:55.260Z,96170.09
2018-03-04T01:32:26.241Z,96169.19
2018-03-04T01:34:57.240Z,96168.13
2018-03-04T01:37:28.236Z,96177.77
2018-03-04T01:39:59.228Z,96186.95
2018-03-04T01:42:30.245Z,96187.89
2018-03-04T01:45:01.257Z,96189.26
2018-03-04T01:47:32.256Z,96192.94
2018-03-04T01:50:03.305Z,96197.48
2018-03-04T01:52:34.301Z,96202.73
2018-03-04T01:55:05.341Z,96201.67
2018-03-04T01:57:36.351Z,96193.36
2018-03-04T02:00:07.333Z,96197.02
2018-03-04T02:02:38.332Z,96204.08
2018-03-04T02:05:09.337Z,96205.14
2018-03-04T02:07:40.325Z,96201.86
2018-03-04T02:10:11.400Z,96200.80
2018-03-04T02:12:42.419Z,96196.61
2018-03-04T02:15:13.391Z,96200.14
2018-03-04T02:17:44.417Z,96199.70
2018-03-04T02:20:15.370Z,96204.83
2018-03-04T02:22:46.352Z,96198.61
2018-03-04T02:25:17.287Z,96201.72
2018-03-04T02:27:48.290Z,96194.61
2018-03-04T02:30:19.271Z,96195.05
2018-03-04T02:32:50.309Z,96198.23
2018-03-04T02:35:21.276Z,96198.96
2018-03-04T02:37:52.305Z,96198.27
2018-03-04T02:40:23.250Z,96201.34
2018-03-04T02:42:54.229Z,96204.43
2018-03-04T02:45:25.223Z,96202.80
2018-03-04T02:47:56.206Z,96207.00
2018-03-04T02:50:27.229Z,96208.56
2018-03-04T02:52:58.247Z,96202.31
2018-03-04T02:55:29.289Z,96199.25
2018-03-04T02:58:07.348Z,96198.35
2018-03-04T03:00:38.338Z,96194.39
2018-03-04T03:03:09.341Z,96199.48
2018-03-04T03:05:40.365Z,96204.96
2018-03-04T03:08:11.379Z,96199.94
2018-03-04T03:10:42.414Z,96188.56
2018-03-04T03:13:13.408Z,96171.46
2018-03-04T03:15:44.391Z,96177.50
2018-03-04T03:18:15.396Z,96184.29
2018-03-04T03:20:46.407Z,96178.81
2018-03-04T03:23:17.396Z,96188.23
2018-03-04T03:25:48.339Z,96184.62
2018-03-04T03:28:19.327Z,96187.42
2018-03-04T03:30:50.336Z,96186.12
2018-03-04T03:33:21.345Z,96189.70
2018-03-04T03:35:52.354Z,96188.56
2018-03-04T03:38:23.357Z,96193.81
2018-03-04T03:40:54.308Z,96201.81
2018-03-04T03:43:25.324Z,96201.92
2018-03-04T03:45:56.308Z,96194.53
2018-03-04T03:48:27.325Z,96193.75
2018-03-04T03:50:58.312Z,96202.64
2018-03-04T03:53:29.315Z,96206.53
2018-03-04T03:56:00.342Z,96211.21
2018-03-04T03:58:31.364Z,96215.58
2018-03-04T04:01:02.356Z,96206.81
2018-03-04T04:03:33.385Z,96209.70
2018-03-04T04:06:04.375Z,96201.80
2018-03-04T04:08:35.420Z,96200.59
2018-03-04T04:11:06.369Z,96200.09
2018-03-04T04:13:37.395Z,96199.30
2018-03-04T04:16:08.343Z,96199.58
2018-03-04T04:18:39.333Z,96197.20
2018-03-04T04:21:10.349Z,96199.59
2018-03-04T04:23:41.311Z,96199.80
2018-03-04T04:26:12.315Z,96202.80
2018-03-04T04:28:43.298Z,96211.05
2018-03-04T04:31:14.272Z,96203.55
2018-03-04T04:33:45.255Z,96200.77
2018-03-04T04:36:16.245Z,96196.98
2018-03-04T04:38:47.244Z,96200.48
2018-03-04T04:41:18.266Z,96202.19
2018-03-04T04:43:49.290Z,96201.22
2018-03-04T04:46:20.309Z,96207.45
2018-03-04T04:48:51.345Z,96212.36
2018-03-04T04:51:22.303Z,96196.31
2018-03-04T04:53:53.350Z,96209.98
2018-03-04T04:56:24.313Z,96199.48
2018-03-04T04:58:55.323Z,96187.72
2018-03-04T05:01:26.310Z,96170.81
2018-03-04T05:03:57.295Z,96177.59
2018-03-04T05:06:28.274Z,96163.45
2018-03-04T05:08:59.247Z,96168.61
2018-03-04T05:11:30.232Z,96188.09
2018-03-04T05:14:01.233Z,96194.69
2018-03-04T05:16:32.252Z,96205.00
2018-03-04T05:19:03.269Z,96214.48
2018-03-04T05:21:34.258Z,96221.34
2018-03-04T05:24:05.263Z,96215.02
2018-03-04T05:26:36.274Z,96214.52
2018-03-04T05:29:07.269Z,96216.47
2018-03-04T05:31:38.287Z,96208.18
2018-03-04T05:34:09.293Z,96194.91
2018-03-04T05:36:40.253Z,96187.41
2018-03-04T05:39:11.236Z,96182.11
2018-03-04T05:41:42.202Z,96188.34
2018-03-04T05:44:13.165Z,96184.78
2018-03-04T05:46:44.159Z,96181.17
2018-03-04T05:49:15.119Z,96190.22
2018-03-04T05:51:46.108Z,96190.16
2018-03-04T05:54:17.105Z,96202.41
2018-03-04T05:56:48.083Z,96208.80
2018-03-04T05:59:19.091Z,96209.30
2018-03-04T06:01:50.069Z,96207.28
2018-03-04T06:04:21.075Z,96208.00
2018-03-04T06:06:52.125Z,96218.72
2018-03-04T06:09:23.113Z,96217.77
2018-03-04T06:11:54.931Z,96216.80
2018-03-04T06:14:25.937Z,96214.93
2018-03-04T06:16:56.904Z,96215.97
2018-03-04T06:19:27.867Z,96209.41
2018-03-04T06:21:58.881Z,96203.27
2018-03-04T06:24:29.847Z,96200.16
2018-03-04T06:27:00.870Z,96204.16
2018-03-04T06:29:31.821Z,96197.59
2018-03-04T06:32:02.801Z,96200.06
2018-03-04T06:34:33.784Z,96200.47
2018-03-04T06:37:04.802Z,96202.20
2018-03-04T06:39:35.799Z,96205.20
2018-03-04T06:42:06.835Z,96208.91
2018-03-04T06:44:37.827Z,96215.52
2018-03-04T06:47:08.971Z,96223.33
2018-03-04T06:49:39.963Z,96219.84
2018-03-04T06:52:11.012Z,96223.34
2018-03-04T06:54:42.034Z,96231.47
2018-03-04T06:57:13.046Z,96228.47
2018-03-04T06:59:44.101Z,96227.68
2018-03-04T07:02:15.079Z,96228.98
2018-03-04T07:04:46.123Z,96224.14
2018-03-04T07:07:17.162Z,96222.63
2018-03-04T07:09:48.179Z,96226.28
2018-03-04T07:12:19.207Z,96224.49
2018-03-04T07:14:50.373Z,96228.95
2018-03-04T07:17:21.391Z,96234.70
2018-03-04T07:19:52.351Z,96241.18
2018-03-04T07:22:23.345Z,96232.80
2018-03-04T07:24:54.373Z,96235.80
2018-03-04T07:27:25.375Z,96227.66
2018-03-04T07:29:56.353Z,96228.56
2018-03-04T07:32:27.371Z,96226.83
2018-03-04T07:34:58.338Z,96222.82
2018-03-04T07:37:29.378Z,96216.16
2018-03-04T07:40:00.397Z,96217.14
2018-03-04T07:42:31.366Z,96213.30
2018-03-04T07:45:02.388Z,96212.66
2018-03-04T07:47:33.370Z,96206.15
2018-03-04T07:50:04.417Z,96195.42
2018-03-04T07:52:35.374Z,96201.91
2018-03-04T07:55:06.395Z,96199.81
2018-03-04T07:57:37.396Z,96210.61
2018-03-04T08:00:08.374Z,96204.64
2018-03-04T08:02:39.319Z,96203.63
2018-03-04T08:05:17.352Z,96197.94
2018-03-04T08:07:48.291Z,96195.03
2018-03-04T08:10:19.291Z,96187.80
2018-03-04T08:12:50.265Z,96185.59
2018-03-04T08:15:21.279Z,96193.50
2018-03-04T08:17:52.323Z,96185.98
2018-03-04T08:20:23.331Z,96190.00
2018-03-04T08:22:54.360Z,96194.05
2018-03-04T08:25:35.332Z,96192.80
2018-03-04T08:28:18.556Z,96198.95
2018-03-04T08:30:49.546Z,96209.73
2018-03-04T08:33:20.498Z,96196.42
2018-03-04T08:35:51.571Z,96193.61
2018-03-04T08:38:22.554Z,96187.69
2018-03-04T08:40:53.609Z,96185.71
2018-03-04T08:43:24.623Z,96186.90
2018-03-04T08:45:55.602Z,96181.38
2018-03-04T08:48:26.612Z,96180.45
2018-03-04T08:50:57.587Z,96182.28
2018-03-04T08:53:28.587Z,96173.78
2018-03-04T08:55:59.601Z,96177.04
2018-03-04T08:58:30.583Z,96178.75
2018-03-04T09:01:01.508Z,96189.84
2018-03-04T09:03:32.480Z,96188.29
2018-03-04T09:06:03.461Z,96179.47
2018-03-04T09:08:34.470Z,96185.74
2018-03-04T09:11:05.468Z,96184.14
2018-03-04T09:13:36.526Z,96178.42
2018-03-04T09:16:07.496Z,96173.05
2018-03-04T09:18:38.525Z,96183.32
2018-03-04T09:21:09.498Z,96185.62
2018-03-04T09:23:40.488Z,96181.69
2018-03-04T09:26:11.515Z,96179.25
2018-03-04T09:28:42.509Z,96178.17
2018-03-04T09:31:13.490Z,96180.47
2018-03-04T09:33:44.497Z,96174.69
2018-03-04T09:36:15.557Z,96182.02
2018-03-04T09:38:46.542Z,96173.50
2018-03-04T09:41:17.542Z,96171.66
2018-03-04T09:43:48.549Z,96162.63
2018-03-04T09:46:19.510Z,96165.25
2018-03-04T09:48:50.881Z,96166.38
2018-03-04T09:51:21.875Z,96160.34
2018-03-04T09:53:52.844Z,96158.34
2018-03-04T09:56:23.800Z,96155.80
2018-03-04T09:58:54.769Z,96156.98
2018-03-04T10:01:25.760Z,96154.70
2018-03-04T10:03:56.783Z,96143.68
2018-03-04T10:06:27.740Z,96146.31
2018-03-04T10:08:58.736Z,96140.59
2018-03-04T10:11:29.723Z,96113.89
2018-03-04T10:14:00.684Z,96108.41
2018-03-04T10:16:31.663Z,96099.58
2018-03-04T10:19:02.657Z,96094.59
2018-03-04T10:21:33.656Z,96100.47
2018-03-04T10:24:04.691Z,96105.92
2018-03-04T10:26:35.693Z,96107.77
2018-03-04T10:29:06.677Z,96096.12
2018-03-04T10:31:37.674Z,96099.26
2018-03-04T10:34:08.676Z,96095.93
2018-03-04T10:36:39.642Z,96085.02
2018-03-04T10:39:10.668Z,96082.32
2018-03-04T10:41:41.665Z,96084.67
2018-03-04T10:44:12.659Z,96087.41
2018-03-04T10:46:43.629Z,96083.42
2018-03-04T10:49:14.588Z,96079.77
2018-03-04T10:51:45.598Z,96072.57
2018-03-04T10:54:16.600Z,96072.38
2018-03-04T10:56:47.625Z,96081.28
2018-03-04T10:59:18.676Z,96086.11
2018-03-04T11:01:50.700Z,96080.02
2018-03-04T11:04:21.702Z,96075.98
2018-03-04T11:06:52.756Z,96056.38
2018-03-04T11:09:23.797Z,96060.69
2018-03-04T11:11:54.875Z,96056.07
2018-03-04T11:14:25.872Z,96056.61
2018-03-04T11:16:56.881Z,96040.50
2018-03-04T11:19:27.876Z,96033.03
2018-03-04T11:21:58.915Z,96025.62
2018-03-04T11:24:29.889Z,96020.33
2018-03-04T11:27:00.895Z,96025.44
2018-03-04T11:29:31.929Z,96006.64
2018-03-04T11:32:02.920Z,96004.84
2018-03-04T11:34:33.887Z,96009.55
2018-03-04T11:37:04.869Z,96012.77
2018-03-04T11:39:35.838Z,96023.06
2018-03-04T11:42:06.846Z,96021.95
2018-03-04T11:44:37.829Z,96026.11
2018-03-04T11:47:08.861Z,96023.97
2018-03-04T11:49:39.940Z,96016.88
2018-03-04T11:52:10.883Z,96018.03
2018-03-04T11:54:41.817Z,96022.37
2018-03-04T11:57:12.846Z,96026.36
2018-03-04T11:59:43.795Z,96008.67
2018-03-04T12:02:14.799Z,96004.61
2018-03-04T12:04:45.817Z,96000.20
2018-03-04T12:07:16.794Z,95993.66
2018-03-04T12:09:47.749Z,95998.87
2018-03-04T12:12:18.755Z,95992.89
2018-03-04T12:14:49.773Z,95997.19
2018-03-04T12:17:20.829Z,96004.95
2018-03-04T12:19:51.844Z,95999.52
2018-03-04T12:22:22.930Z,96008.77
2018-03-04T12:24:53.979Z,96009.31
2018-03-04T12:27:24.973Z,96002.51
2018-03-04T12:29:56.008Z,96000.09
2018-03-04T12:32:26.946Z,96008.37
2018-03-04T12:34:57.905Z,96006.52
2018-03-04T12:37:28.888Z,96011.08
2018-03-04T12:39:59.891Z,96009.13
2018-03-04T12:42:30.901Z,96001.66
2018-03-04T12:45:01.904Z,95994.79
2018-03-04T12:47:32.935Z,95997.41
2018-03-04T12:50:03.923Z,95991.87
2018-03-04T12:52:34.943Z,95991.02
2018-03-04T12:55:05.953Z,95990.67
2018-03-04T12:57:36.939Z,95988.79
2018-03-04T13:00:08.041Z,95996.67
2018-03-04T13:02:39.040Z,95996.27
2018-03-04T13:05:10.087Z,95989.28
2018-03-04T13:07:41.113Z,95983.98
2018-03-04T13:10:12.143Z,95985.05
2018-03-04T13:12:43.132Z,95972.56
2018-03-04T13:15:14.126Z,95964.19
2018-03-04T13:17:46.190Z,95967.03
2018-03-04T13:20:17.233Z,95961.30
2018-03-04T13:22:48.291Z,95960.48
2018-03-04T13:25:19.313Z,95957.05
2018-03-04T13:27:50.293Z,95949.80
2018-03-04T13:30:21.326Z,95945.44
2018-03-04T13:32:52.317Z,95945.48
2018-03-04T13:35:23.341Z,95946.45
2018-03-04T13:37:54.332Z,95944.20
2018-03-04T13:40:25.363Z,95939.83
2018-03-04T13:42:56.337Z,95938.72
2018-03-04T13:45:27.343Z,95935.58
2018-03-04T13:47:58.336Z,95934.67
2018-03-04T13:50:29.359Z,95929.22
2018-03-04T13:53:00.361Z,95929.87
2018-03-04T13:55:31.336Z,95935.27
2018-03-04T13:58:02.386Z,95915.67
2018-03-04T14:00:33.404Z,95919.30
2018-03-04T14:03:04.418Z,95909.56
2018-03-04T14:05:35.427Z,95910.89
2018-03-04T14:08:06.440Z,95916.77
2018-03-04T14:10:37.430Z,95911.89
2018-03-04T14:13:08.432Z,95915.03
2018-03-04T14:15:39.470Z,95913.32
2018-03-04T14:18:10.503Z,95902.09
2018-03-04T14:20:41.523Z,95901.65
2018-03-04T14:23:12.618Z,95890.22
2018-03-04T14:25:43.630Z,95896.31
2018-03-04T14:28:14.653Z,95895.66
2018-03-04T14:30:45.621Z,95896.86
2018-03-04T14:33:16.598Z,95891.53
2018-03-04T14:35:47.567Z,95898.83
2018-03-04T14:38:18.568Z,95898.11
2018-03-04T14:40:49.566Z,95884.44
2018-03-04T14:43:20.546Z,95894.09
2018-03-04T14:45:51.556Z,95893.60
2018-03-04T14:48:22.551Z,95891.63
2018-03-04T14:50:53.555Z,95883.86
2018-03-04T14:53:24.583Z,95872.62
2018-03-04T14:55:55.666Z,95858.86
2018-03-04T14:58:26.673Z,95843.30
2018-03-04T15:00:57.670Z,95850.81
2018-03-04T15:03:28.684Z,95857.57
2018-03-04T15:05:59.742Z,95859.38
2018-03-04T15:08:30.738Z,95856.44
2018-03-04T15:11:01.753Z,95845.53
2018-03-04T15:13:32.778Z,95842.08
2018-03-04T15:16:03.810Z,95843.05
2018-03-04T15:18:34.808Z,95846.78
2018-03-04T15:21:05.830Z,95850.77
2018-03-04T15:23:36.841Z,95850.94
2018-03-04T15:26:07.828Z,95849.84
2018-03-04T15:28:38.889Z,95845.30
2018-03-04T15:31:09.844Z,95850.58
2018-03-04T15:33:40.843Z,95839.87
2018-03-04T15:36:11.854Z,95842.73
2018-03-04T15:38:42.941Z,95847.99
2018-03-04T15:41:13.909Z,95836.24
2018-03-04T15:43:44.896Z,95829.31
2018-03-04T15:46:15.893Z,95828.30
2018-03-04T15:48:46.909Z,95823.72
2018-03-04T15:51:18.028Z,95828.97
2018-03-04T15:53:49.036Z,95822.92
2018-03-04T15:56:20.023Z,95826.23
2018-03-04T15:58:51.085Z,95830.70
2018-03-04T16:01:22.075Z,95838.91
2018-03-04T16:03:53.105Z,95840.55
2018-03-04T16:06:24.121Z,95824.70
2018-03-04T16:08:55.114Z,95828.96
2018-03-04T16:11:26.151Z,95829.52
2018-03-04T16:13:57.173Z,95824.98
2018-03-04T16:16:28.203Z,95825.38
2018-03-04T16:18:59.204Z,95820.45
2018-03-04T16:21:30.356Z,95811.83
2018-03-04T16:24:01.356Z,95815.09
2018-03-04T16:26:32.368Z,95813.12
2018-03-04T16:29:03.386Z,95817.29
2018-03-04T16:31:34.402Z,95809.59
2018-03-04T16:34:05.431Z,95814.69
2018-03-04T16:36:36.447Z,95809.47
2018-03-04T16:39:07.435Z,95815.10
2018-03-04T16:41:38.478Z,95812.09
2018-03-04T16:44:09.453Z,95810.64
2018-03-04T16:46:40.470Z,95803.08
2018-03-04T16:49:11.471Z,95805.42
2018-03-04T16:51:42.465Z,95803.48
2018-03-04T16:54:13.447Z,95795.36
2018-03-04T16:56:44.414Z,95790.55
2018-03-04T16:59:15.421Z,95796.28
2018-03-04T17:01:46.392Z,95800.87
2018-03-04T17:04:17.434Z,95796.94
2018-03-04T17:06:48.424Z,95802.83
2018-03-04T17:09:19.466Z,95801.64
2018-03-04T17:11:50.450Z,95803.23
2018-03-04T17:14:21.454Z,95807.41
2018-03-04T17:16:52.464Z,95804.13
2018-03-04T17:19:23.467Z,95808.70
2018-03-04T17:21:54.471Z,95809.34
2018-03-04T17:24:25.483Z,95804.77
2018-03-04T17:26:56.475Z,95808.58
2018-03-04T17:29:27.514Z,95808.56
2018-03-04T17:31:58.485Z,95813.66
2018-03-04T17:34:29.490Z,95811.31
2018-03-04T17:37:00.498Z,95817.08
2018-03-04T17:39:31.564Z,95820.73
2018-03-04T17:42:02.581Z,95816.16
2018-03-04T17:44:33.593Z,95819.42
2018-03-04T17:47:04.590Z,95819.03
2018-03-04T17:49:35.645Z,95817.20
2018-03-04T17:52:06.620Z,95821.52
2018-03-04T17:54:37.643Z,95823.34
2018-03-04T17:57:08.630Z,95822.70
2018-03-04T17:59:39.643Z,95821.77
2018-03-04T18:02:10.704Z,95821.34
2018-03-04T18:04:41.702Z,95810.11
2018-03-04T18:07:12.716Z,95799.41
2018-03-04T18:09:43.743Z,95798.22
2018-03-04T18:12:14.689Z,95801.98
2018-03-04T18:14:45.736Z,95802.78
2018-03-04T18:17:16.765Z,95801.70
2018-03-04T18:19:47.807Z,95802.88
2018-03-04T18:22:18.824Z,95801.33
2018-03-04T18:24:49.818Z,95801.97
2018-03-04T18:27:20.755Z,95794.66
2018-03-04T18:29:51.714Z,95797.49
2018-03-04T18:32:22.647Z,95791.23
2018-03-04T18:34:53.653Z,95783.89
2018-03-04T18:37:24.658Z,95782.80
2018-03-04T18:39:55.636Z,95785.17
2018-03-04T18:42:26.624Z,95788.94
2018-03-04T18:44:57.659Z,95784.25
2018-03-04T18:47:28.649Z,95779.82
2018-03-04T18:49:59.640Z,95778.77
2018-03-04T18:52:30.633Z,95771.58
2018-03-04T18:55:01.666Z,95775.48
2018-03-04T18:57:32.685Z,95778.13
2018-03-04T19:00:03.676Z,95780.48
2018-03-04T19:02:34.666Z,95779.32
2018-03-04T19:05:05.665Z,95782.05
2018-03-04T19:07:36.692Z,95775.66
2018-03-04T19:10:07.671Z,95763.49
2018-03-04T19:12:38.761Z,95765.33
2018-03-04T19:15:09.781Z,95775.34
2018-03-04T19:17:40.805Z,95779.13
2018-03-04T19:20:11.847Z,95777.27
2018-03-04T19:22:42.873Z,95791.72
2018-03-04T19:25:13.931Z,95787.50
2018-03-04T19:27:44.954Z,95788.66
2018-03-04T19:30:15.932Z,95777.42
2018-03-04T19:32:46.958Z,95774.88
2018-03-04T19:35:17.957Z,95773.14
2018-03-04T19:37:48.930Z,95769.48
2018-03-04T19:40:19.969Z,95772.21
2018-03-04T19:42:50.989Z,95771.70
2018-03-04T19:45:22.017Z,95772.60
2018-03-04T19:47:53.001Z,95764.41
2018-03-04T19:50:24.015Z,95767.44
2018-03-04T19:52:54.985Z,95760.38
2018-03-04T19:55:26.064Z,95762.72
2018-03-04T19:57:57.077Z,95759.94
2018-03-04T20:00:28.144Z,95752.12
2018-03-04T20:02:59.178Z,95746.75
2018-03-04T20:05:30.231Z,95733.87
2018-03-04T20:08:01.243Z,95738.93
2018-03-04T20:10:32.247Z,95748.84
2018-03-04T20:13:03.276Z,95742.87
2018-03-04T20:15:34.237Z,95745.34
2018-03-04T20:18:05.204Z,95742.63
2018-03-04T20:20:36.174Z,95746.66
2018-03-04T20:23:07.201Z,95741.95
2018-03-04T20:25:38.169Z,95747.42
2018-03-04T20:28:09.213Z,95752.24
2018-03-04T20:30:40.229Z,95745.55
2018-03-04T20:33:11.249Z,95753.03
2018-03-04T20:35:42.262Z,95743.00
2018-03-04T20:38:13.256Z,95745.84
2018-03-04T20:40:44.253Z,95749.13
2018-03-04T20:43:15.225Z,95750.34
2018-03-04T20:45:46.238Z,95758.55
2018-03-04T20:48:17.260Z,95762.36
2018-03-04T20:50:48.264Z,95755.98
2018-03-04T20:53:19.271Z,95753.50
2018-03-04T20:55:50.277Z,95747.52
2018-03-04T20:58:21.232Z,95744.64
2018-03-04T21:00:52.249Z,95745.94
2018-03-04T21:03:23.308Z,95741.44
2018-03-04T21:05:54.288Z,95736.26
2018-03-04T21:08:25.274Z,95740.55
2018-03-04T21:10:56.301Z,95746.42
2018-03-04T21:13:27.307Z,95752.15
2018-03-04T21:15:58.306Z,95752.04
2018-03-04T21:18:29.326Z,95757.00
2018-03-04T21:21:00.326Z,95760.65
2018-03-04T21:23:31.313Z,95760.88
2018-03-04T21:26:02.950Z,95756.45
2018-03-04T21:28:34.028Z,95746.45
2018-03-04T21:31:04.990Z,95758.72
2018-03-04T21:33:36.005Z,95763.42
2018-03-04T21:36:07.024Z,95756.77
2018-03-04T21:38:38.018Z,95763.15
2018-03-04T21:41:08.970Z,95781.27
2018-03-04T21:43:39.939Z,95781.50
2018-03-04T21:46:10.904Z,95787.12
2018-03-04T21:48:41.919Z,95783.20
2018-03-04T21:51:12.936Z,95785.03
2018-03-04T21:53:43.931Z,95787.78
2018-03-04T21:56:14.923Z,95786.48
2018-03-04T21:58:45.898Z,95780.35
2018-03-04T22:01:16.913Z,95773.69
2018-03-04T22:03:47.922Z,95769.09
2018-03-04T22:06:18.956Z,95766.88
2018-03-04T22:08:49.988Z,95759.71
2018-03-04T22:11:20.984Z,95762.22
2018-03-04T22:13:51.925Z,95777.87
2018-03-04T22:16:22.914Z,95764.33
2018-03-04T22:18:53.935Z,95769.16
2018-03-04T22:21:24.915Z,95771.91
2018-03-04T22:23:55.926Z,95779.52
2018-03-04T22:26:26.966Z,95787.34
2018-03-04T22:28:57.982Z,95786.70
2018-03-04T22:31:28.998Z,95793.17
2018-03-04T22:33:59.956Z,95798.29
2018-03-04T22:36:30.967Z,95798.45
2018-03-04T22:39:01.982Z,95808.91
2018-03-04T22:41:33.009Z,95812.55
2018-03-04T22:44:04.029Z,95804.48
2018-03-04T22:46:35.117Z,95810.48
2018-03-04T22:49:06.128Z,95813.53
2018-03-04T22:51:37.160Z,95820.19
2018-03-04T22:54:08.139Z,95831.45
2018-03-04T22:56:39.153Z,95828.61
2018-03-04T22:59:10.160Z,95838.67
2018-03-04T23:01:41.143Z,95842.88
2018-03-04T23:04:12.117Z,95846.40
2018-03-04T23:06:43.100Z,95845.59
2018-03-04T23:09:14.094Z,95854.34
2018-03-04T23:11:45.095Z,95852.11
2018-03-04T23:14:16.087Z,95846.73
2018-03-04T23:16:47.152Z,95850.50
2018-03-04T23:19:18.145Z,95851.71
2018-03-04T23:21:49.117Z,95845.99
2018-03-04T23:24:20.099Z,95860.35
2018-03-04T23:26:51.141Z,95858.40
2018-03-04T23:29:22.138Z,95852.00
2018-03-04T23:31:53.149Z,95858.88
2018-03-04T23:34:24.122Z,95865.67
2018-03-04T23:36:55.089Z,95868.83
2018-03-04T23:39:26.092Z,95870.52
2018-03-04T23:41:57.035Z,95867.53
2018-03-04T23:44:28.031Z,95870.00
2018-03-04T23:46:59.011Z,95867.52
2018-03-04T23:49:30.004Z,95870.41
2018-03-04T23:52:00.993Z,95855.09
2018-03-04T23:54:31.962Z,95853.23
2018-03-04T23:57:02.986Z,95843.12
2018-03-04T23:59:33.955Z,95854.54
